createdAt,value
2022-07-29T00:03:02.164Z,16.47
2022-07-29T00:06:05.691Z,16.43
2022-07-29T00:09:10.046Z,16.69
2022-07-29T00:12:13.625Z,17.04
2022-07-29T00:15:17.946Z,17.21
2022-07-29T00:18:21.467Z,17.57
2022-07-29T00:21:25.358Z,17.59
2022-07-29T00:24:29.052Z,17.48
2022-07-29T00:27:32.555Z,17.38
2022-07-29T00:30:36.210Z,17.69
2022-07-29T00:33:40.237Z,18.01
2022-07-29T00:36:47.071Z,18.39
2022-07-29T00:39:51.048Z,18.92
2022-07-29T00:42:54.856Z,19.10
2022-07-29T00:46:00.546Z,19.27
2022-07-29T00:49:04.413Z,19.45
2022-07-29T00:52:09.564Z,19.42
2022-07-29T00:55:15.195Z,19.23
2022-07-29T00:58:19.193Z,19.04
2022-07-29T01:01:22.817Z,18.82
2022-07-29T01:04:27.148Z,18.67
2022-07-29T01:07:33.705Z,18.59
2022-07-29T01:10:40.369Z,18.72
2022-07-29T01:13:45.788Z,18.73
2022-07-29T01:17:10.275Z,18.84
2022-07-29T01:20:32.600Z,19.22
2022-07-29T01:23:50.820Z,19.16
2022-07-29T01:27:18.182Z,19.49
2022-07-29T01:30:26.772Z,20.01
2022-07-29T01:33:52.842Z,20.28
2022-07-29T01:37:15.195Z,20.65
2022-07-29T01:40:52.955Z,21.00
2022-07-29T01:44:04.955Z,21.01
2022-07-29T01:47:17.306Z,20.96
2022-07-29T01:50:25.603Z,21.07
2022-07-29T01:53:38.257Z,20.95
2022-07-29T01:56:44.457Z,20.89
2022-07-29T01:59:49.214Z,20.53
2022-07-29T02:02:55.248Z,20.36
2022-07-29T02:06:00.003Z,20.65
2022-07-29T02:09:05.519Z,20.68
2022-07-29T02:12:13.433Z,20.43
2022-07-29T02:15:19.087Z,20.50
2022-07-29T02:18:25.707Z,20.77
2022-07-29T02:21:32.803Z,21.10
2022-07-29T02:24:38.692Z,21.10
2022-07-29T02:27:44.670Z,20.92
2022-07-29T02:30:49.718Z,21.06
2022-07-29T02:33:55.861Z,21.25
2022-07-29T02:36:59.921Z,21.51
2022-07-29T02:40:04.762Z,21.77
2022-07-29T02:43:10.868Z,21.64
2022-07-29T02:46:29.079Z,21.70
2022-07-29T02:49:40.469Z,21.74
2022-07-29T02:52:49.706Z,21.85
2022-07-29T02:56:13.306Z,21.86
2022-07-29T02:59:22.375Z,21.99
2022-07-29T03:02:28.855Z,21.96
2022-07-29T03:05:37.025Z,21.95
2022-07-29T03:08:42.341Z,22.12
2022-07-29T03:11:50.493Z,22.33
2022-07-29T03:14:55.909Z,22.56
2022-07-29T03:18:00.781Z,22.65
2022-07-29T03:21:05.299Z,22.76
2022-07-29T03:24:12.577Z,22.85
2022-07-29T03:27:16.284Z,22.80
2022-07-29T03:30:22.080Z,22.76
2022-07-29T03:33:25.479Z,22.82
2022-07-29T03:36:29.334Z,23.05
2022-07-29T03:39:37.170Z,23.11
2022-07-29T03:42:42.933Z,23.22
2022-07-29T03:45:49.817Z,23.47
2022-07-29T03:49:00.487Z,23.77
2022-07-29T03:52:04.357Z,23.78
2022-07-29T03:55:09.769Z,23.54
2022-07-29T03:58:15.139Z,23.56
2022-07-29T04:01:20.575Z,23.77
2022-07-29T04:04:24.274Z,23.93
2022-07-29T04:07:31.715Z,23.97
2022-07-29T04:10:35.729Z,24.06
2022-07-29T04:13:39.853Z,24.09
2022-07-29T04:16:43.056Z,24.32
2022-07-29T04:19:46.949Z,24.53
2022-07-29T04:22:50.557Z,24.70
2022-07-29T04:25:54.520Z,24.62
2022-07-29T04:28:57.739Z,24.69
2022-07-29T04:32:01.619Z,24.75
2022-07-29T04:35:05.486Z,24.68
2022-07-29T04:38:15.937Z,24.82
2022-07-29T04:41:20.922Z,24.88
2022-07-29T04:44:28.669Z,25.07
2022-07-29T04:47:32.766Z,24.97
2022-07-29T04:50:36.386Z,24.76
2022-07-29T04:53:40.232Z,24.72
2022-07-29T04:56:44.352Z,24.92
2022-07-29T04:59:47.867Z,25.09
2022-07-29T05:02:52.156Z,25.29
2022-07-29T05:05:57.864Z,25.27
2022-07-29T05:09:01.740Z,25.26
2022-07-29T05:12:05.140Z,25.21
2022-07-29T05:15:09.672Z,25.24
2022-07-29T05:18:12.966Z,25.23
2022-07-29T05:21:16.952Z,25.28
2022-07-29T05:24:20.716Z,25.33
2022-07-29T05:27:24.605Z,25.40
2022-07-29T05:30:28.193Z,25.53
2022-07-29T05:33:36.105Z,25.59
2022-07-29T05:36:40.305Z,25.64
2022-07-29T05:39:49.016Z,25.79
2022-07-29T05:42:53.995Z,25.90
2022-07-29T05:45:58.762Z,25.83
2022-07-29T05:49:04.231Z,26.07
2022-07-29T05:52:08.246Z,26.36
2022-07-29T05:55:12.181Z,26.74
2022-07-29T05:58:17.378Z,27.27
2022-07-29T06:01:21.764Z,27.57
2022-07-29T06:04:25.842Z,27.76
2022-07-29T06:07:29.499Z,27.35
2022-07-29T06:10:37.917Z,26.87
2022-07-29T06:13:41.611Z,26.71
2022-07-29T06:16:45.276Z,26.96
2022-07-29T06:19:49.187Z,27.54
2022-07-29T06:22:52.765Z,27.85
2022-07-29T06:25:56.388Z,27.96
2022-07-29T06:29:00.165Z,28.09
2022-07-29T06:32:04.592Z,27.88
2022-07-29T06:35:37.614Z,28.00
2022-07-29T06:38:34.376Z,27.54
2022-07-29T06:41:43.990Z,27.31
2022-07-29T06:44:49.879Z,27.83
2022-07-29T06:47:54.440Z,28.69
2022-07-29T06:50:58.429Z,29.27
2022-07-29T06:54:03.311Z,29.57
2022-07-29T06:57:07.667Z,30.03
2022-07-29T07:00:11.879Z,30.34
2022-07-29T07:03:17.093Z,31.33
2022-07-29T07:06:20.549Z,31.46
2022-07-29T07:09:24.647Z,32.07
2022-07-29T07:12:43.875Z,33.60
2022-07-29T07:15:50.267Z,34.36
2022-07-29T07:18:53.750Z,34.78
2022-07-29T07:21:58.198Z,34.83
2022-07-29T07:25:01.795Z,35.49
2022-07-29T07:28:05.517Z,35.82
2022-07-29T07:31:09.123Z,36.02
2022-07-29T07:34:13.637Z,36.41
2022-07-29T07:37:18.677Z,36.34
2022-07-29T07:40:22.874Z,36.73
2022-07-29T07:43:26.592Z,37.05
2022-07-29T07:46:30.434Z,37.33
2022-07-29T07:49:34.024Z,37.01
2022-07-29T07:52:51.749Z,37.28
2022-07-29T07:56:12.075Z,37.32
2022-07-29T07:59:16.228Z,37.53
2022-07-29T08:02:20.266Z,38.29
2022-07-29T08:05:24.464Z,38.25
2022-07-29T08:08:28.012Z,38.55
2022-07-29T08:11:31.719Z,39.22
2022-07-29T08:14:39.319Z,39.82
2022-07-29T08:17:43.457Z,40.58
2022-07-29T08:20:46.810Z,40.34
2022-07-29T08:23:58.677Z,40.33
2022-07-29T08:27:09.825Z,40.61
2022-07-29T08:30:25.452Z,40.91
2022-07-29T08:33:28.712Z,40.65
2022-07-29T08:36:34.147Z,40.47
2022-07-29T08:39:37.348Z,41.00
2022-07-29T08:42:41.379Z,41.15
2022-07-29T08:45:49.996Z,41.05
2022-07-29T08:48:54.287Z,40.95
2022-07-29T08:52:00.391Z,40.95
2022-07-29T08:55:05.184Z,41.58
2022-07-29T08:58:09.238Z,42.30
2022-07-29T09:01:23.863Z,42.94
2022-07-29T09:04:41.320Z,43.05
2022-07-29T09:07:49.178Z,42.81
2022-07-29T09:10:53.354Z,43.33
2022-07-29T09:13:57.444Z,43.77
2022-07-29T09:17:01.695Z,43.57
2022-07-29T09:20:20.591Z,43.98
2022-07-29T09:23:27.146Z,43.65
2022-07-29T09:26:33.044Z,43.23
2022-07-29T09:29:38.538Z,44.18
2022-07-29T09:33:03.243Z,44.67
2022-07-29T09:36:11.091Z,44.12
2022-07-29T09:39:17.829Z,43.71
2022-07-29T09:42:31.328Z,43.79
2022-07-29T09:45:36.158Z,43.68
2022-07-29T09:48:39.906Z,44.34
2022-07-29T09:51:44.026Z,43.96
2022-07-29T09:54:47.834Z,44.32
2022-07-29T09:57:51.403Z,44.23
2022-07-29T10:00:56.906Z,44.63
2022-07-29T10:04:00.875Z,44.81
2022-07-29T10:07:06.583Z,45.03
2022-07-29T10:10:10.627Z,45.21
2022-07-29T10:13:16.562Z,45.27
2022-07-29T10:16:20.756Z,45.18
2022-07-29T10:19:25.300Z,45.51
2022-07-29T10:22:51.775Z,45.40
2022-07-29T10:25:53.005Z,44.94
2022-07-29T10:28:57.439Z,44.68
2022-07-29T10:32:27.902Z,44.35
2022-07-29T10:35:45.633Z,44.37
2022-07-29T10:38:49.903Z,45.02
2022-07-29T10:42:16.987Z,45.26
2022-07-29T10:45:24.552Z,45.31
2022-07-29T10:48:28.175Z,45.19
2022-07-29T10:52:01.065Z,45.06
2022-07-29T10:55:06.371Z,44.91
2022-07-29T10:58:27.327Z,44.64
2022-07-29T11:01:37.178Z,44.21
2022-07-29T11:04:56.862Z,43.99
2022-07-29T11:08:19.918Z,43.75
2022-07-29T11:11:29.665Z,43.49
2022-07-29T11:15:20.423Z,42.46
2022-07-29T11:18:25.584Z,41.68
2022-07-29T11:22:05.177Z,41.85
2022-07-29T11:25:50.354Z,41.86
2022-07-29T11:28:53.759Z,41.74
2022-07-29T11:32:10.682Z,41.53
2022-07-29T11:35:37.383Z,41.62
2022-07-29T11:38:43.017Z,41.14
2022-07-29T11:41:46.551Z,40.71
2022-07-29T11:44:57.730Z,40.24
2022-07-29T11:48:29.058Z,39.65
2022-07-29T11:51:32.721Z,39.00
2022-07-29T11:58:04.586Z,37.40
2022-07-29T12:01:08.739Z,36.59
2022-07-29T12:04:12.324Z,35.61
2022-07-29T12:07:03.711Z,38.19
2022-07-29T12:07:18.243Z,34.50
2022-07-29T12:10:30.054Z,33.19
2022-07-29T12:13:41.735Z,30.92
2022-07-29T12:16:45.438Z,29.38
2022-07-29T12:19:50.988Z,28.15
2022-07-29T12:22:56.028Z,27.30
2022-07-29T12:26:01.287Z,26.57
2022-07-29T12:29:14.787Z,25.92
2022-07-29T12:32:24.410Z,25.56
2022-07-29T12:35:28.748Z,25.01
2022-07-29T12:38:36.388Z,24.71
2022-07-29T12:41:40.664Z,24.51
2022-07-29T12:44:49.306Z,24.21
2022-07-29T12:47:53.916Z,23.90
2022-07-29T12:51:00.358Z,23.64
2022-07-29T12:54:17.701Z,23.40
2022-07-29T12:57:21.965Z,23.14
2022-07-29T13:00:26.194Z,23.00
2022-07-29T13:03:35.757Z,22.84
2022-07-29T13:06:46.139Z,22.76
2022-07-29T13:09:53.756Z,22.66
2022-07-29T13:13:15.159Z,22.46
2022-07-29T13:16:19.222Z,22.32
2022-07-29T13:19:42.021Z,22.27
2022-07-29T13:22:50.556Z,22.24
2022-07-29T13:25:54.593Z,22.16
2022-07-29T13:28:58.579Z,22.09
2022-07-29T13:32:02.891Z,21.94
2022-07-29T13:35:08.771Z,21.82
2022-07-29T13:38:12.917Z,21.82
2022-07-29T13:41:16.550Z,21.73
2022-07-29T13:44:21.630Z,21.65
2022-07-29T13:47:32.322Z,21.37
2022-07-29T13:50:37.112Z,21.41
2022-07-29T13:53:40.655Z,21.27
2022-07-29T13:56:44.560Z,21.04
2022-07-29T13:59:53.965Z,20.93
2022-07-29T14:02:58.606Z,20.92
2022-07-29T14:06:02.299Z,20.82
2022-07-29T14:09:13.137Z,20.76
2022-07-29T14:12:16.794Z,20.65
2022-07-29T14:15:22.885Z,20.47
2022-07-29T14:18:26.369Z,20.42
2022-07-29T14:21:30.162Z,20.22
2022-07-29T14:24:36.970Z,20.18
2022-07-29T14:27:41.248Z,20.15
2022-07-29T14:30:45.718Z,20.12
2022-07-29T14:33:49.512Z,20.01
2022-07-29T14:36:53.175Z,20.02
2022-07-29T14:40:01.208Z,19.99
2022-07-29T14:43:05.684Z,19.82
2022-07-29T14:46:09.870Z,19.59
2022-07-29T14:49:13.531Z,19.48
2022-07-29T14:52:17.596Z,19.30
2022-07-29T14:55:21.464Z,19.11
2022-07-29T14:58:25.724Z,18.94
2022-07-29T15:01:29.443Z,18.83
2022-07-29T15:04:36.518Z,18.71
2022-07-29T15:07:39.788Z,18.58
2022-07-29T15:10:43.801Z,18.49
2022-07-29T15:13:47.526Z,18.53
2022-07-29T15:16:52.899Z,18.48
2022-07-29T15:19:56.500Z,18.55
2022-07-29T15:23:00.472Z,18.50
2022-07-29T15:26:04.576Z,18.45
2022-07-29T15:29:08.155Z,18.34
2022-07-29T15:32:13.005Z,18.28
2022-07-29T15:35:16.280Z,18.21
2022-07-29T15:38:20.240Z,18.12
2022-07-29T15:41:32.648Z,18.15
2022-07-29T15:44:37.043Z,18.03
2022-07-29T15:47:40.206Z,17.90
2022-07-29T15:50:46.940Z,17.95
2022-07-29T15:53:53.614Z,17.90
2022-07-29T15:56:57.916Z,17.83
2022-07-29T16:00:01.865Z,17.74
2022-07-29T16:03:11.073Z,17.74
2022-07-29T16:06:15.226Z,17.62
2022-07-29T16:09:19.573Z,17.60
2022-07-29T16:12:23.044Z,17.58
2022-07-29T16:15:27.107Z,17.50
2022-07-29T16:18:31.495Z,17.53
2022-07-29T16:21:36.248Z,17.44
2022-07-29T16:24:40.248Z,17.48
2022-07-29T16:27:43.974Z,17.48
2022-07-29T16:30:47.493Z,17.39
2022-07-29T16:33:54.902Z,17.42
2022-07-29T16:36:59.745Z,17.47
2022-07-29T16:40:05.148Z,17.41
2022-07-29T16:43:09.364Z,17.41
2022-07-29T16:46:14.681Z,17.36
2022-07-29T16:49:22.760Z,17.27
2022-07-29T16:52:26.658Z,17.20
2022-07-29T16:55:30.265Z,17.14
2022-07-29T16:58:34.300Z,17.15
2022-07-29T17:01:37.675Z,17.15
2022-07-29T17:04:41.773Z,17.14
2022-07-29T17:07:45.546Z,17.22
2022-07-29T17:10:49.657Z,17.22
2022-07-29T17:13:52.898Z,17.13
2022-07-29T17:17:01.992Z,17.13
2022-07-29T17:20:07.840Z,16.87
2022-07-29T17:23:11.475Z,16.87
2022-07-29T17:26:15.816Z,16.80
2022-07-29T17:29:19.170Z,16.73
2022-07-29T17:32:23.059Z,16.52
2022-07-29T17:35:45.211Z,16.60
2022-07-29T17:38:49.669Z,16.53
2022-07-29T17:41:53.314Z,16.38
2022-07-29T17:44:57.200Z,16.45
2022-07-29T17:48:00.986Z,16.34
2022-07-29T17:51:05.311Z,16.33
2022-07-29T17:54:08.968Z,16.27
2022-07-29T17:57:13.263Z,16.22
2022-07-29T18:00:17.001Z,16.17
2022-07-29T18:03:21.403Z,16.13
2022-07-29T18:06:25.172Z,16.01
2022-07-29T18:09:29.547Z,16.04
2022-07-29T18:12:33.399Z,16.07
2022-07-29T18:15:37.534Z,15.95
2022-07-29T18:18:41.359Z,16.07
2022-07-29T18:21:51.172Z,16.14
2022-07-29T18:24:59.188Z,16.12
2022-07-29T18:28:03.429Z,16.16
2022-07-29T18:31:07.273Z,16.15
2022-07-29T18:34:11.177Z,16.08
2022-07-29T18:37:15.017Z,16.06
2022-07-29T18:40:20.658Z,16.09
2022-07-29T18:43:24.423Z,16.09
2022-07-29T18:46:28.578Z,16.05
2022-07-29T18:49:32.530Z,15.97
2022-07-29T18:52:36.717Z,16.10
2022-07-29T18:55:40.190Z,16.19
2022-07-29T18:58:44.440Z,16.21
2022-07-29T19:01:49.341Z,16.21
2022-07-29T19:04:53.276Z,16.13
2022-07-29T19:07:57.033Z,15.98
2022-07-29T19:11:01.182Z,15.79
2022-07-29T19:14:05.999Z,15.64
2022-07-29T19:17:10.085Z,15.31
2022-07-29T19:20:15.105Z,15.20
2022-07-29T19:23:19.380Z,15.03
2022-07-29T19:26:22.943Z,15.09
2022-07-29T19:29:29.619Z,14.99
2022-07-29T19:32:33.583Z,15.00
2022-07-29T19:35:37.213Z,15.03
2022-07-29T19:38:41.398Z,15.25
2022-07-29T19:41:44.991Z,15.35
2022-07-29T19:44:48.920Z,15.50
2022-07-29T19:47:54.738Z,15.60
2022-07-29T19:51:01.684Z,15.56
2022-07-29T19:54:06.853Z,15.59
2022-07-29T19:57:11.004Z,15.48
2022-07-29T20:00:15.326Z,15.40
2022-07-29T20:03:19.707Z,15.23
2022-07-29T20:06:23.603Z,15.23
2022-07-29T20:09:29.027Z,15.16
2022-07-29T20:12:33.234Z,15.15
2022-07-29T20:15:37.310Z,15.05
2022-07-29T20:18:40.903Z,15.08
2022-07-29T20:21:44.942Z,15.12
2022-07-29T20:24:48.509Z,15.05
2022-07-29T20:27:53.400Z,15.19
2022-07-29T20:30:57.032Z,15.17
2022-07-29T20:34:01.451Z,15.24
2022-07-29T20:37:05.124Z,15.28
2022-07-29T20:40:12.452Z,15.32
2022-07-29T20:43:15.837Z,15.28
2022-07-29T20:46:20.135Z,15.22
2022-07-29T20:49:23.880Z,15.30
2022-07-29T20:52:27.768Z,15.36
2022-07-29T20:55:32.530Z,15.32
2022-07-29T20:58:37.172Z,15.30
2022-07-29T21:01:40.525Z,15.43
2022-07-29T21:04:44.623Z,15.51
2022-07-29T21:07:47.732Z,15.68
2022-07-29T21:10:52.072Z,15.71
2022-07-29T21:13:55.260Z,15.89
2022-07-29T21:16:59.163Z,15.93
2022-07-29T21:20:05.015Z,16.15
2022-07-29T21:23:09.215Z,16.25
2022-07-29T21:26:13.273Z,16.32
2022-07-29T21:29:17.155Z,16.40
2022-07-29T21:32:27.356Z,16.55
2022-07-29T21:36:01.996Z,16.57
2022-07-29T21:38:57.591Z,16.80
2022-07-29T21:42:01.201Z,16.87
2022-07-29T21:45:06.056Z,16.80
2022-07-29T21:48:10.321Z,16.70
2022-07-29T21:51:13.752Z,16.57
2022-07-29T21:54:17.798Z,16.47
2022-07-29T21:57:21.426Z,16.47
2022-07-29T22:00:29.694Z,16.47
2022-07-29T22:03:33.245Z,16.32
2022-07-29T22:06:37.386Z,16.38
2022-07-29T22:09:40.893Z,16.29
2022-07-29T22:12:44.956Z,16.22
2022-07-29T22:15:48.109Z,16.35
2022-07-29T22:18:52.189Z,16.39
2022-07-29T22:21:55.503Z,16.27
2022-07-29T22:24:59.874Z,16.34
2022-07-29T22:28:03.538Z,16.29
2022-07-29T22:31:07.925Z,16.25
2022-07-29T22:34:13.934Z,16.27
2022-07-29T22:37:18.227Z,16.27
2022-07-29T22:40:22.577Z,16.07
2022-07-29T22:43:33.527Z,15.98
2022-07-29T22:46:37.052Z,16.05
2022-07-29T22:49:40.604Z,16.26
2022-07-29T22:52:44.373Z,16.19
2022-07-29T22:55:47.851Z,16.34
2022-07-29T22:58:51.498Z,16.55
2022-07-29T23:01:55.519Z,16.45
2022-07-29T23:04:59.172Z,16.51
2022-07-29T23:08:03.198Z,16.71
2022-07-29T23:11:06.771Z,17.03
2022-07-29T23:14:10.886Z,17.30
2022-07-29T23:17:14.477Z,17.63
2022-07-29T23:20:18.733Z,17.94
2022-07-29T23:23:22.091Z,18.38
2022-07-29T23:26:26.175Z,18.60
2022-07-29T23:29:32.736Z,18.78
2022-07-29T23:32:38.708Z,19.18
2022-07-29T23:35:42.336Z,19.59
2022-07-29T23:38:47.546Z,20.00
2022-07-29T23:41:51.922Z,20.45
2022-07-29T23:44:55.976Z,20.81
2022-07-29T23:47:59.587Z,21.05
2022-07-29T23:51:03.208Z,21.13
2022-07-29T23:54:06.903Z,21.39
2022-07-29T23:57:10.826Z,21.80
